createdAt,value
2023-03-10T00:01:45.828Z,11.47
2023-03-10T00:04:12.349Z,11.75
2023-03-10T00:06:38.713Z,11.41
2023-03-10T00:09:05.405Z,11.75
2023-03-10T00:11:31.694Z,11.70
2023-03-10T00:13:58.003Z,11.72
2023-03-10T00:16:27.512Z,11.70
2023-03-10T00:18:53.969Z,11.41
2023-03-10T00:21:23.917Z,11.59
2023-03-10T00:23:50.949Z,11.53
2023-03-10T00:26:19.908Z,11.53
2023-03-10T00:28:46.997Z,11.84
2023-03-10T00:31:16.650Z,11.26
2023-03-10T00:33:43.281Z,11.53
2023-03-10T00:36:11.697Z,11.88
2023-03-10T00:38:39.054Z,11.61
2023-03-10T00:41:19.717Z,11.63
2023-03-10T00:43:46.821Z,11.48
2023-03-10T00:46:13.726Z,11.30
2023-03-10T00:48:40.594Z,11.33
2023-03-10T00:51:08.140Z,11.23
2023-03-10T00:53:36.298Z,11.04
2023-03-10T00:56:05.872Z,10.77
2023-03-10T00:58:33.284Z,10.81
2023-03-10T01:00:59.953Z,10.80
2023-03-10T01:03:27.246Z,10.84
2023-03-10T01:05:56.322Z,11.13
2023-03-10T01:08:23.104Z,11.55
2023-03-10T01:10:49.810Z,11.72
2023-03-10T01:13:17.785Z,11.77
2023-03-10T01:15:44.602Z,11.39
2023-03-10T01:18:11.368Z,11.55
2023-03-10T01:20:37.662Z,11.54
2023-03-10T01:23:04.141Z,11.68
2023-03-10T01:25:30.426Z,11.61
2023-03-10T01:27:56.824Z,11.25
2023-03-10T01:30:23.137Z,11.03
2023-03-10T01:32:50.644Z,11.14
2023-03-10T01:35:17.036Z,10.98
2023-03-10T01:37:44.543Z,11.15
2023-03-10T01:40:17.206Z,11.12
2023-03-10T01:42:44.730Z,10.76
2023-03-10T01:45:13.797Z,10.75
2023-03-10T01:47:41.291Z,11.02
2023-03-10T01:50:12.039Z,10.48
2023-03-10T01:52:38.402Z,10.51
2023-03-10T01:55:19.118Z,10.72
2023-03-10T01:57:50.617Z,10.55
2023-03-10T02:00:20.560Z,10.66
2023-03-10T02:03:00.917Z,10.71
2023-03-10T02:05:29.285Z,10.38
2023-03-10T02:07:56.400Z,10.23
2023-03-10T02:10:22.847Z,10.54
2023-03-10T02:12:49.317Z,10.62
2023-03-10T02:15:15.773Z,10.62
2023-03-10T02:17:42.180Z,10.78
2023-03-10T02:20:33.250Z,10.92
2023-03-10T02:22:59.902Z,10.73
2023-03-10T02:25:42.937Z,10.84
2023-03-10T02:28:09.343Z,10.76
2023-03-10T02:30:43.161Z,10.72
2023-03-10T02:33:23.813Z,10.89
2023-03-10T02:35:50.297Z,11.07
2023-03-10T02:38:16.794Z,10.88
2023-03-10T02:40:51.445Z,11.04
2023-03-10T02:43:28.020Z,10.83
2023-03-10T02:46:00.922Z,11.25
2023-03-10T02:48:30.969Z,11.16
2023-03-10T02:50:59.567Z,11.33
2023-03-10T02:53:28.445Z,11.48
2023-03-10T02:55:56.011Z,11.25
2023-03-10T02:58:25.614Z,11.54
2023-03-10T03:00:52.706Z,11.46
2023-03-10T03:03:20.627Z,11.39
2023-03-10T03:05:48.409Z,11.47
2023-03-10T03:08:15.546Z,11.33
2023-03-10T03:10:42.585Z,11.49
2023-03-10T03:13:09.445Z,11.45
2023-03-10T03:15:36.197Z,11.34
2023-03-10T03:18:03.991Z,11.22
2023-03-10T03:20:31.800Z,11.43
2023-03-10T03:22:58.809Z,11.46
2023-03-10T03:25:27.273Z,11.28
2023-03-10T03:27:53.995Z,11.40
2023-03-10T03:30:26.258Z,11.57
2023-03-10T03:32:54.293Z,11.36
2023-03-10T03:35:23.844Z,11.27
2023-03-10T03:37:51.256Z,11.33
2023-03-10T03:40:18.072Z,11.36
2023-03-10T03:42:47.159Z,11.28
2023-03-10T03:45:15.917Z,11.17
2023-03-10T03:47:43.061Z,11.05
2023-03-10T03:50:12.364Z,11.15
2023-03-10T03:52:39.908Z,11.25
2023-03-10T03:55:07.686Z,10.86
2023-03-10T03:57:34.389Z,10.84
2023-03-10T04:00:00.717Z,10.57
2023-03-10T04:02:27.045Z,10.71
2023-03-10T04:04:54.717Z,10.36
2023-03-10T04:07:21.286Z,10.26
2023-03-10T04:09:47.608Z,10.10
2023-03-10T04:12:13.970Z,10.39
2023-03-10T04:14:40.256Z,10.25
2023-03-10T04:17:06.586Z,10.06
2023-03-10T04:19:32.988Z,10.46
2023-03-10T04:21:59.285Z,10.09
2023-03-10T04:24:25.757Z,10.26
2023-03-10T04:26:52.099Z,10.19
2023-03-10T04:29:18.661Z,10.12
2023-03-10T04:31:55.826Z,10.60
2023-03-10T04:34:29.155Z,10.53
2023-03-10T04:36:55.486Z,10.66
2023-03-10T04:39:21.980Z,10.65
2023-03-10T04:41:48.323Z,10.78
2023-03-10T04:44:29.922Z,10.40
2023-03-10T04:46:56.662Z,10.88
2023-03-10T04:49:23.021Z,10.79
2023-03-10T04:51:49.332Z,10.92
2023-03-10T04:54:15.733Z,10.74
2023-03-10T04:56:42.908Z,10.66
2023-03-10T04:59:09.209Z,10.77
2023-03-10T05:01:35.675Z,10.58
2023-03-10T05:04:04.297Z,10.86
2023-03-10T05:06:31.164Z,10.98
2023-03-10T05:08:57.624Z,10.92
2023-03-10T05:11:24.196Z,10.82
2023-03-10T05:13:50.960Z,10.96
2023-03-10T05:16:20.571Z,10.94
2023-03-10T05:18:47.443Z,10.89
2023-03-10T05:21:14.452Z,10.99
2023-03-10T05:23:40.955Z,11.30
2023-03-10T05:26:09.308Z,11.16
2023-03-10T05:28:36.372Z,11.19
2023-03-10T05:31:12.168Z,11.12
2023-03-10T05:33:38.873Z,11.09
2023-03-10T05:36:08.043Z,10.99
2023-03-10T05:38:34.770Z,10.88
2023-03-10T05:41:01.111Z,11.16
2023-03-10T05:43:27.725Z,11.08
2023-03-10T05:45:58.788Z,10.95
2023-03-10T05:48:25.796Z,11.14
2023-03-10T05:51:06.815Z,11.07
2023-03-10T05:53:35.058Z,10.95
2023-03-10T05:56:09.156Z,11.21
2023-03-10T05:58:36.321Z,11.02
2023-03-10T06:01:02.678Z,11.25
2023-03-10T06:03:29.186Z,11.25
2023-03-10T06:05:56.885Z,11.22
2023-03-10T06:08:23.558Z,11.09
2023-03-10T06:10:50.259Z,11.19
2023-03-10T06:13:17.521Z,11.34
2023-03-10T06:15:44.022Z,11.15
2023-03-10T06:18:10.446Z,11.02
2023-03-10T06:20:39.747Z,10.88
2023-03-10T06:23:06.194Z,11.11
2023-03-10T06:25:32.659Z,11.27
2023-03-10T06:27:58.940Z,11.13
2023-03-10T06:30:25.206Z,11.23
2023-03-10T06:32:51.873Z,11.17
2023-03-10T06:35:18.431Z,11.22
2023-03-10T06:37:44.863Z,10.83
2023-03-10T06:40:14.049Z,10.85
2023-03-10T06:42:41.535Z,11.19
2023-03-10T06:45:09.985Z,11.36
2023-03-10T06:47:37.553Z,11.06
2023-03-10T06:50:05.840Z,11.07
2023-03-10T06:52:34.011Z,11.21
2023-03-10T06:55:04.261Z,11.03
2023-03-10T06:57:31.779Z,10.88
2023-03-10T06:59:58.472Z,11.38
2023-03-10T07:02:24.929Z,11.41
2023-03-10T07:04:51.293Z,11.03
2023-03-10T07:07:18.007Z,11.43
2023-03-10T07:09:44.356Z,11.56
2023-03-10T07:12:10.746Z,11.48
2023-03-10T07:14:37.183Z,11.33
2023-03-10T07:17:04.134Z,11.49
2023-03-10T07:19:30.598Z,11.20
2023-03-10T07:21:58.769Z,11.49
2023-03-10T07:24:25.219Z,11.67
2023-03-10T07:26:51.754Z,11.28
2023-03-10T07:29:32.023Z,11.66
2023-03-10T07:31:58.504Z,11.64
2023-03-10T07:34:25.522Z,11.68
2023-03-10T07:36:51.959Z,11.55
2023-03-10T07:39:19.682Z,11.69
2023-03-10T07:41:46.046Z,11.52
2023-03-10T07:44:12.403Z,12.05
2023-03-10T07:46:41.665Z,11.97
2023-03-10T07:49:08.014Z,12.18
2023-03-10T07:51:34.717Z,12.21
2023-03-10T07:54:01.630Z,12.16
2023-03-10T07:56:28.068Z,12.16
2023-03-10T07:58:54.400Z,11.85
2023-03-10T08:01:21.925Z,12.15
2023-03-10T08:03:49.685Z,12.10
2023-03-10T08:06:23.556Z,12.30
2023-03-10T08:08:50.756Z,12.32
2023-03-10T08:11:18.558Z,12.41
2023-03-10T08:13:45.830Z,12.33
2023-03-10T08:16:12.279Z,12.57
2023-03-10T08:18:39.134Z,12.29
2023-03-10T08:21:06.529Z,12.26
2023-03-10T08:23:34.680Z,12.58
2023-03-10T08:26:03.625Z,12.51
2023-03-10T08:28:30.826Z,12.69
2023-03-10T08:31:04.945Z,12.95
2023-03-10T08:33:32.949Z,13.06
2023-03-10T08:36:05.399Z,13.01
2023-03-10T08:38:32.738Z,12.99
2023-03-10T08:41:11.854Z,13.30
2023-03-10T08:43:38.841Z,13.43
2023-03-10T08:46:08.590Z,13.62
2023-03-10T08:48:35.196Z,13.57
2023-03-10T08:51:02.014Z,13.67
2023-03-10T08:53:28.939Z,13.52
2023-03-10T08:55:55.556Z,13.42
2023-03-10T08:58:22.211Z,13.54
2023-03-10T09:00:49.976Z,13.27
2023-03-10T09:03:16.991Z,13.69
2023-03-10T09:05:43.792Z,13.63
2023-03-10T09:08:11.714Z,13.58
2023-03-10T09:10:39.396Z,13.48
2023-03-10T09:13:13.586Z,13.29
2023-03-10T09:15:41.043Z,13.39
2023-03-10T09:18:09.721Z,13.46
2023-03-10T09:20:37.877Z,13.80
2023-03-10T09:23:04.753Z,14.03
2023-03-10T09:25:31.564Z,14.10
2023-03-10T09:28:01.240Z,13.87
2023-03-10T09:30:27.883Z,13.94
2023-03-10T09:32:54.739Z,13.91
2023-03-10T09:35:21.564Z,14.10
2023-03-10T09:37:47.963Z,14.10
2023-03-10T09:40:20.538Z,13.98
2023-03-10T09:42:48.860Z,14.28
2023-03-10T09:45:55.444Z,14.98
2023-03-10T09:48:42.759Z,15.82
2023-03-10T09:51:16.821Z,15.67
2023-03-10T09:53:58.892Z,14.94
2023-03-10T09:56:30.686Z,14.78
2023-03-10T09:59:09.828Z,14.44
2023-03-10T10:01:37.680Z,14.75
2023-03-10T10:04:30.838Z,15.23
2023-03-10T10:06:58.556Z,15.50
2023-03-10T10:09:50.545Z,15.53
2023-03-10T10:12:19.605Z,15.94
2023-03-10T10:14:56.604Z,15.90
2023-03-10T10:18:05.335Z,15.49
2023-03-10T10:20:44.883Z,15.84
2023-03-10T10:23:30.845Z,15.69
2023-03-10T10:26:09.290Z,15.11
2023-03-10T10:28:56.091Z,14.84
2023-03-10T10:31:27.284Z,14.44
2023-03-10T10:34:01.068Z,14.51
2023-03-10T10:36:31.136Z,14.15
2023-03-10T10:38:58.911Z,13.97
2023-03-10T10:41:34.102Z,13.95
2023-03-10T10:44:08.520Z,13.68
2023-03-10T10:46:35.658Z,13.66
2023-03-10T10:49:22.114Z,13.50
2023-03-10T10:51:59.638Z,13.79
2023-03-10T10:54:29.552Z,13.46
2023-03-10T10:57:00.996Z,13.69
2023-03-10T10:59:36.495Z,13.60
2023-03-10T11:02:04.618Z,13.82
2023-03-10T11:04:44.764Z,13.77
2023-03-10T11:07:23.717Z,14.11
2023-03-10T11:09:50.682Z,14.06
2023-03-10T11:12:26.142Z,13.60
2023-03-10T11:14:52.591Z,13.67
2023-03-10T11:17:26.844Z,13.60
2023-03-10T11:20:02.490Z,13.51
2023-03-10T11:22:44.138Z,13.27
2023-03-10T11:25:22.813Z,12.92
2023-03-10T11:27:55.915Z,13.16
2023-03-10T11:30:36.489Z,13.16
2023-03-10T11:33:24.701Z,13.11
2023-03-10T11:36:13.019Z,13.24
2023-03-10T11:38:42.773Z,13.25
2023-03-10T11:41:23.752Z,13.28
2023-03-10T11:43:57.791Z,13.94
2023-03-10T11:46:48.781Z,13.52
2023-03-10T11:49:16.802Z,13.84
2023-03-10T11:51:49.423Z,14.15
2023-03-10T11:54:25.679Z,14.24
2023-03-10T11:56:54.223Z,14.10
2023-03-10T11:59:27.719Z,14.99
2023-03-10T12:02:05.348Z,15.19
2023-03-10T12:04:58.347Z,14.98
2023-03-10T12:07:29.008Z,15.12
2023-03-10T12:09:58.914Z,14.91
2023-03-10T12:12:30.619Z,14.68
2023-03-10T12:15:00.425Z,14.64
2023-03-10T12:17:28.092Z,14.67
2023-03-10T12:20:13.369Z,15.10
2023-03-10T12:22:41.909Z,15.45
2023-03-10T12:25:30.684Z,15.63
2023-03-10T12:28:16.088Z,15.80
2023-03-10T12:31:03.666Z,15.72
2023-03-10T12:33:32.813Z,16.30
2023-03-10T12:36:02.842Z,16.65
2023-03-10T12:38:38.698Z,16.65
2023-03-10T12:41:06.830Z,16.16
2023-03-10T12:43:58.875Z,16.16
2023-03-10T12:46:46.258Z,15.89
2023-03-10T12:49:38.119Z,15.24
2023-03-10T12:52:19.661Z,15.80
2023-03-10T12:55:15.897Z,16.05
2023-03-10T12:57:45.283Z,16.77
2023-03-10T13:00:33.328Z,16.43
2023-03-10T13:03:25.720Z,16.36
2023-03-10T13:06:19.960Z,15.85
2023-03-10T13:08:54.748Z,14.87
2023-03-10T13:11:36.017Z,14.29
2023-03-10T13:14:12.716Z,14.39
2023-03-10T13:16:39.909Z,14.02
2023-03-10T13:19:06.413Z,13.70
2023-03-10T13:21:36.273Z,13.81
2023-03-10T13:24:19.160Z,13.87
2023-03-10T13:26:45.614Z,13.70
2023-03-10T13:29:18.015Z,13.59
2023-03-10T13:31:55.565Z,13.69
2023-03-10T13:34:26.123Z,13.35
2023-03-10T13:37:06.935Z,13.57
2023-03-10T13:39:33.930Z,13.53
2023-03-10T13:42:02.627Z,13.61
2023-03-10T13:44:40.606Z,13.63
2023-03-10T13:47:17.533Z,13.71
2023-03-10T13:49:50.492Z,13.44
2023-03-10T13:52:20.540Z,13.28
2023-03-10T13:54:47.884Z,13.35
2023-03-10T13:57:25.058Z,12.92
2023-03-10T13:59:53.582Z,12.64
2023-03-10T14:02:33.386Z,12.27
2023-03-10T14:05:00.501Z,12.31
2023-03-10T14:07:33.865Z,12.24
2023-03-10T14:10:03.175Z,12.47
2023-03-10T14:12:42.180Z,12.34
2023-03-10T14:15:29.992Z,12.19
2023-03-10T14:18:08.772Z,12.16
2023-03-10T14:20:43.493Z,12.25
2023-03-10T14:23:19.163Z,12.39
2023-03-10T14:25:46.978Z,12.74
2023-03-10T14:28:25.168Z,13.15
2023-03-10T14:30:52.021Z,13.89
2023-03-10T14:33:18.354Z,14.44
2023-03-10T14:35:45.207Z,14.55
2023-03-10T14:38:11.989Z,14.86
2023-03-10T14:40:44.279Z,14.74
2023-03-10T14:43:31.555Z,14.46
2023-03-10T14:46:00.716Z,14.73
2023-03-10T14:48:30.611Z,14.20
2023-03-10T14:50:57.203Z,14.56
2023-03-10T14:53:25.190Z,14.96
2023-03-10T14:55:54.630Z,14.49
2023-03-10T14:58:24.515Z,14.22
2023-03-10T15:00:51.439Z,14.21
2023-03-10T15:03:17.817Z,13.86
2023-03-10T15:05:48.582Z,13.64
2023-03-10T15:08:17.036Z,13.49
2023-03-10T15:10:47.074Z,13.54
2023-03-10T15:13:13.743Z,13.70
2023-03-10T15:15:42.857Z,13.71
2023-03-10T15:18:14.565Z,13.56
2023-03-10T15:20:41.388Z,13.21
2023-03-10T15:23:08.422Z,13.39
2023-03-10T15:25:35.781Z,13.28
2023-03-10T15:28:03.145Z,13.26
2023-03-10T15:30:32.905Z,13.27
2023-03-10T15:32:59.401Z,13.16
2023-03-10T15:35:26.149Z,12.92
2023-03-10T15:37:52.786Z,12.70
2023-03-10T15:40:26.939Z,12.63
2023-03-10T15:42:53.943Z,12.52
2023-03-10T15:45:20.278Z,12.63
2023-03-10T15:47:47.126Z,12.61
2023-03-10T15:50:16.314Z,12.53
2023-03-10T15:52:47.476Z,12.15
2023-03-10T15:55:14.753Z,12.05
2023-03-10T15:57:41.741Z,11.86
2023-03-10T16:00:09.136Z,11.46
2023-03-10T16:02:35.499Z,11.59
2023-03-10T16:05:02.077Z,11.38
2023-03-10T16:07:28.453Z,11.38
2023-03-10T16:09:54.874Z,11.27
2023-03-10T16:12:21.297Z,11.06
2023-03-10T16:14:47.683Z,11.05
2023-03-10T16:17:14.063Z,11.15
2023-03-10T16:19:41.437Z,11.04
2023-03-10T16:22:07.715Z,10.76
2023-03-10T16:24:34.072Z,10.83
2023-03-10T16:27:00.651Z,10.74
2023-03-10T16:29:27.075Z,10.86
2023-03-10T16:31:53.812Z,10.58
2023-03-10T16:34:20.345Z,10.51
2023-03-10T16:36:46.777Z,10.21
2023-03-10T16:39:13.057Z,10.10
2023-03-10T16:41:39.400Z,10.32
2023-03-10T16:44:07.228Z,9.98
2023-03-10T16:46:34.334Z,9.92
2023-03-10T16:49:01.345Z,10.50
2023-03-10T16:51:34.383Z,10.47
2023-03-10T16:54:04.072Z,10.41
2023-03-10T16:56:32.067Z,10.06
2023-03-10T16:58:58.685Z,10.10
2023-03-10T17:01:25.530Z,10.28
2023-03-10T17:03:53.193Z,10.23
2023-03-10T17:06:23.240Z,9.94
2023-03-10T17:08:51.361Z,9.76
2023-03-10T17:11:27.841Z,9.92
2023-03-10T17:13:55.980Z,9.78
2023-03-10T17:16:25.029Z,9.87
2023-03-10T17:18:51.464Z,9.55
2023-03-10T17:21:21.130Z,9.43
2023-03-10T17:23:48.077Z,9.36
2023-03-10T17:26:15.966Z,9.53
2023-03-10T17:28:43.610Z,10.05
2023-03-10T17:31:18.038Z,9.93
2023-03-10T17:33:44.395Z,9.97
2023-03-10T17:36:13.839Z,10.13
2023-03-10T17:38:41.203Z,9.90
2023-03-10T17:41:12.625Z,9.74
2023-03-10T17:43:40.061Z,9.85
2023-03-10T17:46:13.244Z,9.70
2023-03-10T17:48:39.673Z,9.73
2023-03-10T17:51:06.590Z,9.50
2023-03-10T17:53:33.582Z,9.65
2023-03-10T17:56:06.881Z,9.78
2023-03-10T17:58:34.586Z,9.56
2023-03-10T18:01:28.667Z,9.51
2023-03-10T18:03:56.305Z,9.48
2023-03-10T18:06:29.019Z,9.42
2023-03-10T18:08:56.721Z,9.07
2023-03-10T18:11:23.550Z,8.91
2023-03-10T18:13:50.044Z,9.02
2023-03-10T18:16:28.364Z,8.66
2023-03-10T18:18:56.040Z,8.93
2023-03-10T18:21:23.793Z,8.75
2023-03-10T18:23:50.855Z,8.76
2023-03-10T18:26:20.431Z,8.69
2023-03-10T18:28:47.794Z,8.70
2023-03-10T18:31:22.914Z,8.47
2023-03-10T18:33:49.546Z,8.66
2023-03-10T18:36:17.837Z,8.38
2023-03-10T18:38:45.278Z,8.46
2023-03-10T18:41:11.945Z,8.42
2023-03-10T18:43:38.303Z,8.30
2023-03-10T18:46:04.961Z,8.40
2023-03-10T18:48:31.276Z,8.35
2023-03-10T18:50:59.095Z,8.54
2023-03-10T18:53:26.705Z,8.24
2023-03-10T18:55:53.785Z,8.12
2023-03-10T18:58:20.595Z,8.32
2023-03-10T19:00:47.743Z,8.18
2023-03-10T19:03:14.181Z,8.18
2023-03-10T19:05:41.191Z,8.23
2023-03-10T19:08:08.096Z,8.35
2023-03-10T19:10:34.485Z,8.18
2023-03-10T19:13:00.865Z,8.01
2023-03-10T19:15:27.339Z,7.91
2023-03-10T19:17:53.788Z,7.75
2023-03-10T19:20:20.387Z,7.88
2023-03-10T19:22:48.873Z,7.75
2023-03-10T19:25:15.280Z,7.88
2023-03-10T19:27:41.660Z,7.65
2023-03-10T19:30:16.319Z,7.81
2023-03-10T19:32:43.681Z,7.56
2023-03-10T19:35:10.651Z,7.91
2023-03-10T19:37:38.825Z,7.72
2023-03-10T19:40:06.845Z,7.60
2023-03-10T19:42:33.889Z,7.61
2023-03-10T19:45:01.079Z,7.61
2023-03-10T19:47:30.839Z,7.72
2023-03-10T19:49:57.172Z,7.69
2023-03-10T19:52:23.449Z,7.45
2023-03-10T19:54:50.842Z,7.42
2023-03-10T19:57:17.856Z,7.38
2023-03-10T19:59:44.134Z,7.43
2023-03-10T20:02:14.170Z,7.42
2023-03-10T20:04:40.566Z,7.29
2023-03-10T20:07:06.907Z,7.17
2023-03-10T20:09:33.315Z,7.29
2023-03-10T20:11:59.819Z,7.46
2023-03-10T20:14:26.485Z,7.37
2023-03-10T20:16:53.108Z,7.21
2023-03-10T20:19:20.075Z,7.17
2023-03-10T20:21:46.484Z,6.98
2023-03-10T20:24:13.192Z,6.46
2023-03-10T20:26:39.507Z,6.53
2023-03-10T20:29:05.882Z,6.17
2023-03-10T20:31:32.213Z,5.86
2023-03-10T20:33:58.637Z,5.93
2023-03-10T20:36:24.936Z,5.99
2023-03-10T20:38:51.238Z,5.57
2023-03-10T20:41:18.748Z,5.67
2023-03-10T20:43:45.262Z,5.54
2023-03-10T20:46:11.648Z,5.40
2023-03-10T20:48:38.249Z,5.27
2023-03-10T20:51:05.608Z,5.05
2023-03-10T20:53:33.077Z,4.89
2023-03-10T20:56:00.423Z,4.76
2023-03-10T20:58:27.276Z,4.78
2023-03-10T21:00:53.790Z,4.45
2023-03-10T21:03:20.520Z,4.52
2023-03-10T21:05:47.001Z,4.54
2023-03-10T21:08:13.449Z,4.43
2023-03-10T21:10:39.940Z,4.36
2023-03-10T21:13:06.511Z,4.32
2023-03-10T21:15:32.903Z,4.21
2023-03-10T21:17:59.322Z,4.21
2023-03-10T21:20:25.690Z,4.02
2023-03-10T21:22:52.033Z,3.79
2023-03-10T21:25:22.103Z,3.96
2023-03-10T21:27:51.238Z,3.82
2023-03-10T21:30:17.893Z,3.82
2023-03-10T21:32:44.261Z,3.79
2023-03-10T21:35:12.990Z,4.08
2023-03-10T21:37:42.304Z,3.95
2023-03-10T21:40:10.593Z,4.13
2023-03-10T21:42:36.936Z,4.08
2023-03-10T21:45:07.418Z,3.88
2023-03-10T21:47:34.465Z,3.82
2023-03-10T21:50:00.845Z,3.97
2023-03-10T21:52:27.153Z,4.06
2023-03-10T21:54:53.457Z,3.97
2023-03-10T21:57:19.767Z,4.09
2023-03-10T21:59:46.083Z,3.77
2023-03-10T22:02:30.086Z,3.71
2023-03-10T22:04:57.262Z,3.64
2023-03-10T22:07:23.693Z,3.99
2023-03-10T22:09:50.144Z,3.87
2023-03-10T22:12:16.440Z,3.58
2023-03-10T22:14:43.088Z,3.38
2023-03-10T22:17:09.689Z,3.68
2023-03-10T22:19:35.982Z,3.37
2023-03-10T22:22:02.310Z,3.80
2023-03-10T22:24:28.597Z,3.60
2023-03-10T22:26:54.890Z,3.53
2023-03-10T22:29:21.249Z,3.32
2023-03-10T22:31:47.533Z,3.45
2023-03-10T22:34:13.878Z,3.44
2023-03-10T22:36:40.192Z,3.37
2023-03-10T22:39:06.536Z,3.31
2023-03-10T22:41:32.830Z,3.40
2023-03-10T22:43:59.279Z,3.66
2023-03-10T22:46:25.589Z,3.90
2023-03-10T22:48:51.932Z,3.70
2023-03-10T22:51:18.786Z,3.50
2023-03-10T22:53:45.363Z,3.66
2023-03-10T22:56:11.659Z,3.60
2023-03-10T22:58:38.102Z,3.66
2023-03-10T23:01:04.802Z,3.65
2023-03-10T23:03:32.424Z,3.56
2023-03-10T23:05:58.942Z,3.31
2023-03-10T23:08:25.299Z,3.44
2023-03-10T23:10:51.732Z,3.14
2023-03-10T23:13:18.087Z,3.17
2023-03-10T23:15:45.722Z,3.27
2023-03-10T23:18:12.082Z,3.29
2023-03-10T23:20:42.174Z,3.38
2023-03-10T23:23:11.927Z,3.36
2023-03-10T23:25:41.474Z,3.26
2023-03-10T23:28:09.971Z,3.26
2023-03-10T23:30:38.285Z,3.18
2023-03-10T23:33:04.811Z,2.92
2023-03-10T23:35:33.299Z,2.88
2023-03-10T23:38:00.608Z,2.70
2023-03-10T23:40:28.901Z,2.71
2023-03-10T23:42:56.869Z,2.63
2023-03-10T23:45:25.094Z,3.12
2023-03-10T23:47:52.510Z,3.01
2023-03-10T23:50:28.256Z,3.12
2023-03-10T23:52:55.507Z,3.46
2023-03-10T23:55:29.133Z,3.19
2023-03-10T23:57:55.437Z,3.20
